Key West International Airport
KEYW : now visible

Airfield :











YOU CAN JOIN US ON...

 
LOGIN :

Register | Disclaimer

   EN    FR    IT 

 









Legend :    VFR   Marginal VFR   IFR   Intensive IFR   Very Intensive IFR
Visi :
Ceiling :
>= 8 km
>= 3000ft
5 to 8 km
1000 to 3000 ft
1500m to 5 km
500 to 1000 ft
800 to 1500m
200 to 500 ft
< 800m
< 200 ft
Symbols :   Thunderstorms  Fog  Heavy snow  Heavy precipitations  Wind > 20 kt






- Airport Elevation : 3 ft
- IATA code : EYW


KEYW - Key West International

CURRENT METAR :
  • 291453Z 04003KT 10SM CLR 23/17 A2999 RMK AO2 SLP154 T02280172 51008

EXPIRED METARs :
  • 291353Z VRB03KT 10SM CLR 22/17 A2998 RMK AO2 SLP153 T02170167
  • 291253Z 00000KT 10SM CLR 19/17 A2998 RMK AO2 SLP151 T01940167
  • 291153Z 36005KT 10SM CLR 19/17 A2996 RMK AO2 SLP146 T01890167 10206 20189 53008

TAF KEYW
Valid from the 29 at 12:00 until the 30 at 12:00 UTC


291140Z 2912/3012 02004KT P6SM SKC
FM291900 28008KT P6SM SCT020
FM300300 24006KT P6SM VCSH BKN020
FM300600 24010G18KT P6SM BKN020



MET'MAP, your aeronautical weather chart ! - Copyright ORBIFLY December 2007 - Disclaimer

ORBIFLY MET'MAP TEAM :

Programming & Development : Alexandra Zaïnal
Concept & original design : Baudouin d'Aumeries
Assistance for programming : Marc-Olivier Méhu
Technical & hardware support : Manuel Goepfert

Contact : metmap@orbifly.com




SOURCES & CREDITS :

   NOAA       Earth
Advisory